Time;durP1;ratioP1;P1;durP2;ratioP2;P2;SDS_P1;SDS_P2;PMS_P1;PMS_P2;Temp;Humidity;BMP_temperature;BMP_pressure;BME280_temperature;BME280_humidity;BME280_pressure;Samples;Min_cycle;Max_cycle;Signal;HPM_P1;HPM_P2
2023/01/27 00:00:59;;;;;;;51.75;26.50;;;;;;;-0.50;83.08;100665.91;1721184;83;25696;-52
2023/01/27 00:03:25;;;;;;;51.00;25.95;;;;;;;-0.50;83.28;100669.90;1721672;83;25584;-49
2023/01/27 00:05:52;;;;;;;54.20;25.70;;;;;;;-0.49;83.37;100672.06;1721777;83;26721;-49
2023/01/27 00:08:18;;;;;;;56.70;26.30;;;;;;;-0.49;83.51;100672.06;1721591;83;25635;-49
2023/01/27 00:10:45;;;;;;;54.03;27.17;;;;;;;-0.48;83.61;100668.34;1721581;82;25469;-49
2023/01/27 00:13:26;;;;;;;54.48;26.70;;;;;;;-0.47;83.61;100672.11;1721615;83;25743;-49
2023/01/27 00:15:54;;;;;;;55.30;26.45;;;;;;;-0.44;83.80;100676.17;1721830;83;25397;-50
2023/01/27 00:18:22;;;;;;;55.43;27.02;;;;;;;-0.43;83.74;100674.59;1721680;83;27428;-50
2023/01/27 00:26:19;;;;;;;54.35;26.17;;;;;;;-0.38;83.79;100678.72;1711017;83;26309;-52
2023/01/27 00:28:48;;;;;;;59.65;27.75;;;;;;;-0.37;83.83;100674.23;1721756;83;25576;-50
2023/01/27 00:34:07;;;;;;;67.03;30.95;;;;;;;-0.33;83.75;100686.55;1721638;83;25597;-49
2023/01/27 00:36:30;;;;;;;58.13;28.07;;;;;;;-0.33;83.83;100680.70;1721585;82;25482;-50
2023/01/27 00:38:57;;;;;;;58.98;28.42;;;;;;;-0.32;83.68;100686.81;1721618;83;25687;-50
2023/01/27 00:41:23;;;;;;;62.67;29.57;;;;;;;-0.31;83.68;100683.94;1721776;83;25625;-48
2023/01/27 00:43:52;;;;;;;64.37;30.05;;;;;;;-0.30;83.63;100684.77;1721669;83;27250;-49
2023/01/27 00:46:22;;;;;;;60.55;29.67;;;;;;;-0.30;83.61;100692.74;1721809;83;25377;-49
2023/01/27 00:48:53;;;;;;;64.10;29.50;;;;;;;-0.31;83.66;100695.90;1721566;82;25375;-50
2023/01/27 00:51:20;;;;;;;75.83;34.35;;;;;;;-0.29;83.68;100691.69;1711614;83;25952;-52
2023/01/27 00:53:47;;;;;;;81.08;35.60;;;;;;;-0.29;83.55;100695.18;1721857;83;25571;-49
2023/01/27 00:56:14;;;;;;;71.35;34.63;;;;;;;-0.29;83.42;100696.51;1721834;83;27326;-49
2023/01/27 00:58:40;;;;;;;70.62;33.53;;;;;;;-0.32;83.32;100694.80;1721719;83;25456;-52
2023/01/27 01:01:11;;;;;;;73.22;33.70;;;;;;;-0.33;83.41;100690.53;1721800;83;25646;-50
2023/01/27 01:03:37;;;;;;;70.30;33.18;;;;;;;-0.32;83.57;100685.49;1721837;83;27790;-50
2023/01/27 01:06:08;;;;;;;69.22;34.27;;;;;;;-0.34;83.60;100684.41;1721810;83;25599;-50
2023/01/27 01:08:36;;;;;;;69.10;33.25;;;;;;;-0.33;83.60;100687.87;1752037;81;27367;-53
2023/01/27 01:11:05;;;;;;;73.35;35.50;;;;;;;-0.32;83.73;100689.48;1749944;81;25382;-50
2023/01/27 01:13:32;;;;;;;75.80;35.52;;;;;;;-0.33;83.74;100687.87;1747764;82;25643;-49
2023/01/27 01:16:08;;;;;;;75.05;35.63;;;;;;;-0.36;83.73;100674.50;1746668;82;27865;-50
2023/01/27 01:18:35;;;;;;;80.55;37.03;;;;;;;-0.39;83.44;100678.44;1747776;82;25410;-50
2023/01/27 01:21:01;;;;;;;78.75;36.20;;;;;;;-0.43;83.63;100679.91;1747723;82;27386;-49
2023/01/27 01:23:28;;;;;;;72.53;33.80;;;;;;;-0.44;83.64;100687.61;1747622;82;25631;-50
2023/01/27 01:25:56;;;;;;;79.65;34.00;;;;;;;-0.46;83.59;100687.03;1747697;80;25637;-50
2023/01/27 01:28:23;;;;;;;79.40;35.08;;;;;;;-0.45;83.84;100686.51;1747088;82;26252;-53
2023/01/27 01:30:49;;;;;;;74.97;35.52;;;;;;;-0.45;83.99;100681.19;1724536;82;26058;-49
2023/01/27 01:33:16;;;;;;;85.10;38.63;;;;;;;-0.47;84.00;100680.08;1747667;82;29653;-50
2023/01/27 01:35:43;;;;;;;77.27;36.33;;;;;;;-0.46;83.95;100678.23;1747575;82;25367;-50
2023/01/27 01:38:10;;;;;;;78.97;35.80;;;;;;;-0.47;84.09;100684.59;1747686;82;25609;-50
2023/01/27 01:40:43;;;;;;;84.00;37.83;;;;;;;-0.47;84.08;100682.74;1747670;82;25623;-49
2023/01/27 01:43:19;;;;;;;81.40;37.10;;;;;;;-0.48;84.07;100686.42;1726205;82;25583;-51
2023/01/27 01:45:54;;;;;;;83.55;38.83;;;;;;;-0.50;84.08;100683.71;1747660;82;27344;-50
2023/01/27 01:48:43;;;;;;;85.05;37.88;;;;;;;-0.50;84.22;100683.71;1747608;82;25946;-49
2023/01/27 01:51:34;;;;;;;81.95;38.00;;;;;;;-0.51;84.28;100688.23;1711882;82;25392;-49
2023/01/27 01:54:09;;;;;;;82.90;37.17;;;;;;;-0.52;84.33;100686.59;1747266;82;25601;-52
2023/01/27 01:56:53;;;;;;;69.27;28.35;;;;;;;-0.54;84.42;100688.67;1736814;82;25629;-53
2023/01/27 01:59:30;;;;;;;82.78;44.23;;;;;;;-0.54;84.45;100679.38;1747650;82;28003;-49
2023/01/27 02:02:02;;;;;;;112.85;98.05;;;;;;;-0.54;84.64;100686.55;1747657;82;25646;-48
2023/01/27 02:04:33;;;;;;;115.77;96.75;;;;;;;-0.55;84.86;100679.06;1747701;82;25627;-49
2023/01/27 02:07:32;;;;;;;113.83;97.82;;;;;;;-0.57;84.72;100679.81;1747674;82;26205;-49
2023/01/27 02:10:00;;;;;;;113.12;96.82;;;;;;;-0.59;84.79;100677.91;1747835;81;27906;-49
2023/01/27 02:12:27;;;;;;;113.90;95.47;;;;;;;-0.62;84.89;100673.84;1748512;82;27400;-49
2023/01/27 02:14:54;;;;;;;121.57;98.25;;;;;;;-0.63;84.79;100671.41;1748389;82;25532;-49
2023/01/27 02:17:21;;;;;;;111.42;99.20;;;;;;;-0.65;84.84;100676.14;1717988;83;25590;-49
2023/01/27 02:19:56;;;;;;;121.65;100.33;;;;;;;-0.66;84.96;100674.53;1717417;83;25392;-48
2023/01/27 02:22:31;;;;;;;117.33;100.12;;;;;;;-0.68;85.03;100673.43;1717073;83;25381;-48
2023/01/27 02:25:02;;;;;;;107.58;96.15;;;;;;;-0.69;85.26;100675.78;1716741;82;29036;-49
2023/01/27 02:27:29;;;;;;;115.05;94.62;;;;;;;-0.70;85.25;100672.02;1716867;82;25446;-49
2023/01/27 02:29:55;;;;;;;123.25;96.45;;;;;;;-0.70;85.49;100673.34;1717428;82;25566;-49
2023/01/27 02:32:25;;;;;;;110.07;95.73;;;;;;;-0.70;85.53;100683.45;1717324;83;28199;-48
2023/01/27 02:34:55;;;;;;;109.25;97.37;;;;;;;-0.70;85.79;100687.43;1716995;82;25461;-48
2023/01/27 02:37:24;;;;;;;114.42;98.15;;;;;;;-0.70;86.08;100680.79;1717346;83;27286;-51
2023/01/27 02:39:53;;;;;;;77.80;67.80;;;;;;;-0.68;86.01;100680.56;1717410;83;25457;-50
2023/01/27 02:42:19;;;;;;;110.97;97.75;;;;;;;-0.69;86.05;100679.77;1717452;83;25457;-52
2023/01/27 02:44:45;;;;;;;108.40;96.55;;;;;;;-0.70;85.98;100680.79;1717334;83;25630;-51
2023/01/27 02:47:11;;;;;;;107.10;95.53;;;;;;;-0.70;86.17;100684.77;1717421;83;25540;-50
2023/01/27 02:49:37;;;;;;;110.40;95.90;;;;;;;-0.67;86.43;100682.20;1717358;83;27405;-48
2023/01/27 02:52:04;;;;;;;106.32;94.85;;;;;;;-0.65;86.51;100687.56;1717196;83;25393;-49
2023/01/27 02:54:31;;;;;;;117.45;96.28;;;;;;;-0.64;86.48;100683.89;1717422;82;25635;-48
2023/01/27 02:56:58;;;;;;;105.40;93.90;;;;;;;-0.64;86.30;100683.89;1717274;83;27703;-49
2023/01/27 02:59:24;;;;;;;108.65;95.72;;;;;;;-0.62;86.19;100685.80;1717385;82;25418;-49
2023/01/27 03:01:51;;;;;;;108.75;97.12;;;;;;;-0.60;86.40;100681.59;1717282;83;27348;-49
2023/01/27 03:04:17;;;;;;;104.70;93.05;;;;;;;-0.58;86.78;100684.33;1717245;83;25484;-51
2023/01/27 03:06:43;;;;;;;108.30;94.13;;;;;;;-0.57;86.57;100683.27;1717315;83;25393;-49
2023/01/27 03:09:09;;;;;;;114.42;96.45;;;;;;;-0.55;86.55;100689.70;1717261;83;25653;-49
2023/01/27 03:19:53;;;;;;;105.20;94.07;;;;;;;-0.52;86.68;100686.59;1721721;83;25501;-49
2023/01/27 03:22:19;;;;;;;110.70;96.45;;;;;;;-0.52;86.58;100689.25;1721707;83;25686;-51
2023/01/27 03:24:45;;;;;;;106.58;94.20;;;;;;;-0.52;86.61;100680.48;1721994;83;25611;-49
2023/01/27 03:27:11;;;;;;;105.83;94.00;;;;;;;-0.52;86.60;100691.11;1721655;83;27365;-49
2023/01/27 03:29:56;;;;;;;112.20;96.30;;;;;;;-0.52;86.81;100686.59;1721581;83;25630;-49
2023/01/27 03:32:31;;;;;;;105.30;93.25;;;;;;;-0.51;86.76;100688.23;1721807;83;25536;-48
2023/01/27 03:34:59;;;;;;;104.67;93.67;;;;;;;-0.53;86.62;100688.14;1721669;83;25770;-48
2023/01/27 03:48:36;;;;;;;72.08;64.55;;;;;;;-0.58;86.57;100690.97;1721834;83;26308;-49
2023/01/27 03:51:07;;;;;;;103.80;92.45;;;;;;;-0.60;86.61;100689.03;1721623;83;25574;-49
2023/01/27 03:53:36;;;;;;;109.75;94.90;;;;;;;-0.61;86.53;100687.95;1721712;83;27971;-48
2023/01/27 03:56:05;;;;;;;105.80;94.42;;;;;;;-0.62;86.59;100688.45;1710985;83;25680;-49
2023/01/27 03:58:35;;;;;;;71.25;63.05;;;;;;;-0.62;86.49;100695.63;1707768;83;25500;-49
2023/01/27 04:01:15;;;;;;;103.85;92.80;;;;;;;-0.63;86.55;100694.82;1721647;83;26151;-48
2023/01/27 04:06:54;;;;;;;114.28;99.65;;;;;;;-0.65;86.60;100700.05;1721708;83;27474;-49
2023/01/27 04:09:25;;;;;;;107.35;95.28;;;;;;;-0.64;86.50;100703.02;1721567;83;26555;-50
2023/01/27 04:11:54;;;;;;;105.85;94.92;;;;;;;-0.65;86.37;100705.37;1721354;82;25603;-50
2023/01/27 04:14:27;;;;;;;;;;;;;;;-0.66;86.60;100703.77;1724190;83;26333;-50
2023/01/27 04:17:02;;;;;;;103.78;92.60;;;;;;;-0.66;86.77;100710.41;1721657;82;25627;-53
2023/01/27 04:19:29;;;;;;;104.78;93.35;;;;;;;-0.68;86.86;100711.13;1721681;83;27963;-50
2023/01/27 04:21:58;;;;;;;103.53;92.35;;;;;;;-0.69;87.00;100714.83;1721717;83;25624;-50
2023/01/27 04:24:25;;;;;;;105.10;94.00;;;;;;;-0.70;86.96;100711.87;1721828;83;25449;-51
2023/01/27 04:26:56;;;;;;;107.17;92.88;;;;;;;-0.70;86.94;100715.33;1721756;83;25672;-49
2023/01/27 04:29:27;;;;;;;109.07;95.92;;;;;;;-0.69;87.00;100715.63;1721884;83;25445;-49
2023/01/27 04:31:56;;;;;;;108.20;96.40;;;;;;;-0.71;86.95;100714.25;1721809;83;27358;-49
2023/01/27 04:34:24;;;;;;;80.87;72.32;;;;;;;-0.70;86.94;100713.20;1721864;83;25681;-50
2023/01/27 04:36:52;;;;;;;108.55;96.97;;;;;;;-0.70;87.05;100710.54;1729052;82;25478;-50
2023/01/27 04:39:19;;;;;;;110.10;95.20;;;;;;;-0.70;87.15;100711.87;1749077;81;25638;-48
2023/01/27 04:41:47;;;;;;;104.23;93.10;;;;;;;-0.71;87.14;100711.06;1719520;83;25650;-50
2023/01/27 04:44:15;;;;;;;107.58;95.85;;;;;;;-0.71;87.09;100714.25;1753181;81;27369;-49
2023/01/27 04:46:41;;;;;;;105.30;94.55;;;;;;;-0.71;86.95;100714.25;1752936;81;25444;-49
2023/01/27 04:49:07;;;;;;;109.22;96.17;;;;;;;-0.72;87.04;100713.95;1719511;82;25415;-48
2023/01/27 04:51:34;;;;;;;111.08;99.28;;;;;;;-0.74;87.00;100712.84;1752954;81;25566;-49
2023/01/27 04:54:02;;;;;;;85.62;47.03;;;;;;;-0.77;87.03;100720.75;1723708;81;25393;-49
2023/01/27 04:56:40;;;;;;;129.42;104.87;;;;;;;-0.79;87.19;100725.98;1718953;83;27376;-50
2023/01/27 04:59:11;;;;;;;121.17;98.92;;;;;;;-0.82;87.11;100721.10;1743406;81;25559;-49
2023/01/27 05:01:38;;;;;;;106.65;95.40;;;;;;;-0.83;87.00;100728.80;1753042;81;25630;-49
2023/01/27 05:04:04;;;;;;;107.95;96.42;;;;;;;-0.84;86.95;100728.48;1714401;82;25569;-49
2023/01/27 05:06:31;;;;;;;109.03;97.12;;;;;;;-0.89;86.98;100730.47;1757839;81;25446;-49
2023/01/27 05:08:57;;;;;;;108.95;96.45;;;;;;;-0.92;87.14;100729.58;1753055;81;27094;-49
2023/01/27 05:11:23;;;;;;;110.40;97.05;;;;;;;-0.96;87.11;100726.56;1717381;82;25811;-49
2023/01/27 05:13:50;;;;;;;106.03;94.65;;;;;;;-0.98;86.81;100724.66;1747746;81;25480;-49
2023/01/27 05:16:21;;;;;;;107.17;95.35;;;;;;;-1.01;86.97;100733.05;1747672;82;25629;-49
2023/01/27 05:18:51;;;;;;;107.30;94.00;;;;;;;-1.04;87.18;100728.70;1747743;82;25557;-49
2023/01/27 05:21:22;;;;;;;106.20;95.25;;;;;;;-1.08;87.24;100734.98;1747877;81;27366;-49
2023/01/27 05:23:50;;;;;;;108.97;95.80;;;;;;;-1.11;87.37;100731.95;1747654;82;25427;-49
2023/01/27 05:26:21;;;;;;;122.75;100.10;;;;;;;-1.13;87.23;100738.81;1747680;82;25442;-49
2023/01/27 05:28:50;;;;;;;123.07;101.27;;;;;;;-1.16;87.62;100746.72;1744989;81;25711;-49
2023/01/27 05:31:24;;;;;;;110.17;95.63;;;;;;;-1.18;87.68;100742.64;1726679;83;25486;-51
2023/01/27 05:33:54;;;;;;;112.85;94.58;;;;;;;-1.21;87.65;100749.22;1747662;82;27927;-50
2023/01/27 05:36:24;;;;;;;105.65;91.67;;;;;;;-1.26;87.67;100752.20;1747777;82;25641;-49
2023/01/27 05:38:54;;;;;;;102.27;91.57;;;;;;;-1.28;87.72;100747.64;1722078;83;25489;-52
2023/01/27 05:41:22;;;;;;;106.90;95.15;;;;;;;-1.33;87.97;100754.43;1709821;83;25665;-52
2023/01/27 05:43:52;;;;;;;106.58;92.97;;;;;;;-1.35;88.08;100755.14;1709590;83;25567;-52
2023/01/27 05:46:24;;;;;;;102.60;91.72;;;;;;;-1.37;88.16;100767.02;1709578;83;27346;-52
2023/01/27 05:48:54;;;;;;;109.83;94.03;;;;;;;-1.39;88.37;100766.43;1709483;83;25601;-52
2023/01/27 05:51:24;;;;;;;101.87;91.20;;;;;;;-1.40;88.51;100760.81;1709551;83;25546;-49
2023/01/27 05:53:52;;;;;;;100.42;89.95;;;;;;;-1.41;88.55;100765.32;1709482;83;25630;-49
2023/01/27 05:56:19;;;;;;;104.83;93.53;;;;;;;-1.42;88.73;100758.90;1709730;83;25592;-49
2023/01/27 05:58:45;;;;;;;103.55;92.05;;;;;;;-1.45;88.90;100756.67;1709479;83;27285;-48
2023/01/27 06:01:20;;;;;;;102.22;91.12;;;;;;;-1.45;89.01;100769.42;1709408;83;25479;-49
2023/01/27 06:03:48;;;;;;;103.83;92.25;;;;;;;-1.43;88.81;100771.86;1709563;83;25615;-49
2023/01/27 06:06:19;;;;;;;99.32;88.80;;;;;;;-1.49;88.75;100760.28;1709441;83;25748;-51
2023/01/27 06:08:47;;;;;;;103.87;91.80;;;;;;;-1.49;89.06;100767.44;1709578;83;25533;-49
2023/01/27 06:11:16;;;;;;;102.38;90.97;;;;;;;-1.51;89.16;100764.48;1709458;83;27516;-49
2023/01/27 06:13:43;;;;;;;104.60;93.27;;;;;;;-1.51;89.16;100770.30;1709573;83;25439;-49
2023/01/27 06:16:16;;;;;;;104.72;92.27;;;;;;;-1.52;89.27;100774.78;1709472;83;25637;-49
2023/01/27 06:18:45;;;;;;;101.22;90.87;;;;;;;-1.52;89.36;100785.39;1722003;83;25684;-49
2023/01/27 06:21:14;;;;;;;75.50;65.77;;;;;;;-1.53;89.53;100786.44;1709830;83;25464;-50
2023/01/27 06:23:40;;;;;;;102.65;91.75;;;;;;;-1.54;89.63;100783.48;1709622;83;27311;-50
2023/01/27 06:26:12;;;;;;;103.15;92.72;;;;;;;-1.55;89.77;100792.48;1709387;83;25592;-49
2023/01/27 06:28:39;;;;;;;103.32;90.90;;;;;;;-1.53;89.90;100797.58;1684224;83;25605;-48
2023/01/27 06:31:15;;;;;;;106.95;93.25;;;;;;;-1.53;90.16;100794.92;1709438;83;25805;-48
2023/01/27 06:33:43;;;;;;;107.30;93.42;;;;;;;-1.53;90.11;100791.75;1709507;83;25612;-49
2023/01/27 06:36:17;;;;;;;105.58;94.62;;;;;;;-1.50;90.21;100803.75;1722236;83;27324;-49
2023/01/27 06:38:45;;;;;;;103.55;92.22;;;;;;;-1.48;90.26;100808.84;1727414;82;27214;-49
2023/01/27 06:41:12;;;;;;;107.50;91.70;;;;;;;-1.47;90.23;100803.84;1727455;82;25570;-48
2023/01/27 06:43:39;;;;;;;106.10;93.55;;;;;;;-1.47;90.11;100801.20;1727408;82;25814;-49
2023/01/27 06:46:05;;;;;;;106.10;93.80;;;;;;;-1.45;90.27;100805.77;1727509;83;25476;-53
2023/01/27 06:48:33;;;;;;;106.10;90.35;;;;;;;-1.44;90.36;100809.53;1727488;83;27332;-52
2023/01/27 06:51:01;;;;;;;103.97;92.80;;;;;;;-1.39;90.52;100812.87;1727326;82;25555;-50
2023/01/27 06:53:27;;;;;;;106.43;94.75;;;;;;;-1.39;90.64;100809.70;1727467;83;25551;-49
2023/01/27 06:56:00;;;;;;;109.70;94.75;;;;;;;-1.39;90.64;100809.70;1727403;83;25716;-50
2023/01/27 06:58:28;;;;;;;113.90;95.38;;;;;;;-1.36;90.89;100807.94;1716189;83;25792;-53
2023/01/27 07:00:56;;;;;;;69.10;61.53;;;;;;;-1.33;90.92;100811.50;1727741;83;27416;-51
2023/01/27 07:03:23;;;;;;;104.60;93.22;;;;;;;-1.30;90.92;100812.89;1727384;82;25561;-50
2023/01/27 07:05:52;;;;;;;112.68;93.67;;;;;;;-1.26;91.00;100811.44;1727438;83;25445;-49
2023/01/27 07:08:18;;;;;;;72.03;64.80;;;;;;;-1.22;91.08;100816.59;1727521;82;26225;-50
2023/01/27 07:10:44;;;;;;;107.12;91.53;;;;;;;-1.17;91.27;100818.08;1727414;82;25563;-52
2023/01/27 07:13:14;;;;;;;104.07;90.03;;;;;;;-1.13;91.51;100812.63;1727265;81;27368;-49
2023/01/27 07:15:42;;;;;;;105.45;91.53;;;;;;;-1.07;91.67;100812.78;1716897;83;25441;-49
2023/01/27 07:18:12;;;;;;;105.80;94.22;;;;;;;-1.00;91.71;100817.02;1747569;82;25594;-49
2023/01/27 07:20:41;;;;;;;107.17;95.00;;;;;;;-0.95;91.89;100818.50;1726294;82;25655;-50
2023/01/27 07:23:09;;;;;;;108.92;94.95;;;;;;;-0.88;92.02;100814.97;1747613;82;25545;-50
2023/01/27 07:25:36;;;;;;;106.15;93.33;;;;;;;-0.81;92.16;100814.38;1747570;82;27316;-50
2023/01/27 07:28:06;;;;;;;105.32;92.40;;;;;;;-0.73;92.05;100812.77;1747513;82;27087;-49
2023/01/27 07:30:33;;;;;;;70.47;63.25;;;;;;;-0.67;92.01;100823.02;1747691;82;25619;-51
2023/01/27 07:33:08;;;;;;;105.35;92.17;;;;;;;-0.60;91.99;100821.09;1747581;82;25678;-49
2023/01/27 07:35:36;;;;;;;108.05;96.08;;;;;;;-0.52;91.84;100820.80;1726244;82;25509;-50
2023/01/27 07:38:04;;;;;;;105.52;93.92;;;;;;;-0.47;91.84;100822.80;1747922;82;27338;-49
2023/01/27 07:56:41;;;;;;;110.05;97.10;;;;;;;-0.03;91.23;100820.30;1730327;78;27322;-49
2023/01/27 07:59:10;;;;;;;107.10;95.50;;;;;;;0.05;91.40;100821.01;1717057;83;25641;-50
2023/01/27 08:01:37;;;;;;;108.87;97.17;;;;;;;0.17;91.95;100820.52;1669943;85;25696;-49
2023/01/27 08:04:03;;;;;;;109.37;96.42;;;;;;;0.31;91.90;100823.30;1717157;83;27333;-51
2023/01/27 08:06:31;;;;;;;106.95;95.15;;;;;;;0.46;92.02;100831.36;1717090;83;25564;-51
2023/01/27 08:08:59;;;;;;;110.22;98.42;;;;;;;0.54;91.19;100827.05;1687382;85;25491;-50
2023/01/27 08:11:25;;;;;;;106.10;95.00;;;;;;;0.62;90.69;100824.05;1717053;82;25627;-53
2023/01/27 08:13:52;;;;;;;103.60;92.90;;;;;;;0.71;90.86;100823.98;1687350;85;25503;-51
2023/01/27 08:16:19;;;;;;;105.70;94.60;;;;;;;0.84;90.78;100826.16;1717065;83;27385;-52
2023/01/27 08:18:45;;;;;;;106.80;95.75;;;;;;;0.95;90.75;100827.20;1716994;83;25757;-51
2023/01/27 08:21:12;;;;;;;104.00;93.25;;;;;;;1.05;90.09;100827.43;1687288;85;25779;-51
2023/01/27 08:23:39;;;;;;;108.40;97.05;;;;;;;1.13;89.81;100842.27;1726752;82;25492;-51
2023/01/27 08:26:07;;;;;;;105.15;94.28;;;;;;;1.21;89.69;100833.40;1687331;85;25435;-51
2023/01/27 08:28:36;;;;;;;107.35;96.30;;;;;;;1.26;88.82;100838.01;1717152;83;27307;-50
2023/01/27 08:31:13;;;;;;;105.80;94.97;;;;;;;1.30;88.50;100837.31;1716968;83;25588;-51
2023/01/27 08:33:42;;;;;;;106.35;95.15;;;;;;;1.36;88.42;100834.76;1717079;83;25408;-49
2023/01/27 08:36:13;;;;;;;106.97;94.95;;;;;;;1.39;87.92;100839.09;1717068;83;25620;-52
2023/01/27 08:38:41;;;;;;;102.53;91.95;;;;;;;1.43;87.57;100840.77;1687347;85;25549;-50
2023/01/27 08:41:12;;;;;;;104.03;93.47;;;;;;;1.46;87.61;100835.80;1717063;83;27957;-51
2023/01/27 08:43:39;;;;;;;104.17;93.03;;;;;;;1.52;87.26;100841.24;1716513;83;25613;-51
2023/01/27 08:46:07;;;;;;;104.65;94.17;;;;;;;1.53;87.06;100840.98;1717083;83;25611;-51
2023/01/27 08:48:36;;;;;;;106.30;95.32;;;;;;;1.57;86.83;100849.34;1687270;85;26275;-54
2023/01/27 08:51:04;;;;;;;102.82;92.12;;;;;;;1.61;86.75;100847.81;1717125;83;25762;-51
2023/01/27 08:53:31;;;;;;;103.67;92.97;;;;;;;1.63;86.57;100842.52;1717274;83;27325;-51
2023/01/27 08:56:01;;;;;;;105.50;94.52;;;;;;;1.66;86.05;100845.25;1687168;84;25850;-50
2023/01/27 08:58:28;;;;;;;105.90;95.15;;;;;;;1.67;85.79;100850.89;1720280;83;25575;-52
2023/01/27 09:00:54;;;;;;;103.95;93.15;;;;;;;1.65;85.55;100844.95;1720075;83;25699;-51
2023/01/27 09:03:20;;;;;;;103.92;92.72;;;;;;;1.65;85.75;100843.63;1720157;83;25611;-53
2023/01/27 09:05:47;;;;;;;104.32;93.55;;;;;;;1.70;85.55;100848.25;1720176;83;28043;-53
2023/01/27 09:08:14;;;;;;;103.07;92.30;;;;;;;1.72;85.58;100850.99;1720119;83;25551;-53
2023/01/27 09:10:42;;;;;;;105.25;94.20;;;;;;;1.75;85.42;100848.36;1720286;83;25607;-54
2023/01/27 09:13:09;;;;;;;98.17;88.60;;;;;;;1.78;85.24;100857.23;1707579;83;26136;-53
2023/01/27 09:15:36;;;;;;;102.60;91.80;;;;;;;1.78;84.86;100851.36;1720307;83;25461;-52
2023/01/27 09:18:04;;;;;;;99.70;89.92;;;;;;;1.82;84.85;100853.86;1720274;83;27321;-52
2023/01/27 09:20:31;;;;;;;99.00;88.92;;;;;;;1.84;84.78;100850.42;1720188;83;25572;-53
2023/01/27 09:22:57;;;;;;;101.30;90.87;;;;;;;1.88;84.72;100849.42;1720281;83;25390;-51
2023/01/27 09:25:24;;;;;;;99.92;89.95;;;;;;;1.91;84.68;100850.30;1720230;83;25715;-51
2023/01/27 09:27:55;;;;;;;98.33;88.65;;;;;;;1.94;84.39;100855.16;1707495;83;25562;-52
2023/01/27 09:30:23;;;;;;;98.95;89.25;;;;;;;1.95;84.16;100854.63;1720267;83;27395;-52
2023/01/27 09:32:50;;;;;;;96.75;87.27;;;;;;;2.00;84.29;100852.05;1720145;83;25857;-51
2023/01/27 09:35:17;;;;;;;99.65;89.83;;;;;;;2.07;84.42;100854.05;1720239;83;25386;-51
2023/01/27 09:37:54;;;;;;;100.65;90.55;;;;;;;2.23;84.90;100859.14;1720238;83;25597;-51
2023/01/27 09:40:26;;;;;;;99.62;89.60;;;;;;;2.40;85.06;100847.98;1720337;83;25620;-51
2023/01/27 09:43:18;;;;;;;82.47;68.57;;;;;;;2.69;85.61;100851.11;1719853;82;27235;-52
2023/01/27 09:46:17;;;;;;;50.17;24.35;;;;;;;2.95;85.25;100854.48;1720267;83;25735;-53
2023/01/27 09:49:21;;;;;;;;;;;;;;;3.15;83.70;100847.80;1722855;83;25585;-52
2023/01/27 09:52:23;;;;;;;44.58;20.50;;;;;;;3.36;84.05;100845.70;1720218;83;26150;-51
2023/01/27 09:55:31;;;;;;;42.85;21.15;;;;;;;3.49;83.16;100849.06;1719878;82;25441;-51
2023/01/27 09:58:35;;;;;;;41.05;20.60;;;;;;;3.59;81.89;100851.06;1717955;82;27396;-50
2023/01/27 10:01:16;;;;;;;43.35;20.15;;;;;;;3.58;81.09;100856.16;1717058;83;25536;-54
2023/01/27 10:04:07;;;;;;;41.77;20.10;;;;;;;3.58;80.36;100856.95;1687245;85;25476;-53
2023/01/27 10:07:06;;;;;;;42.20;21.07;;;;;;;3.64;80.56;100857.28;1717170;83;25690;-54
2023/01/27 10:09:44;;;;;;;36.40;18.02;;;;;;;3.67;79.97;100856.78;1614856;88;25498;-50
2023/01/27 10:12:49;;;;;;;36.25;18.80;;;;;;;3.67;79.38;100854.11;1644205;86;27654;-53
2023/01/27 10:15:31;;;;;;;35.98;19.07;;;;;;;3.68;79.28;100855.74;1644366;87;25613;-51
2023/01/27 10:18:27;;;;;;;35.33;18.37;;;;;;;3.79;80.01;100849.97;1644445;87;25518;-54
2023/01/27 10:21:07;;;;;;;39.50;18.70;;;;;;;3.87;79.59;100853.55;1614838;88;27845;-55
2023/01/27 10:23:54;;;;;;;38.38;17.35;;;;;;;3.99;79.59;100853.95;1644340;87;25657;-51
2023/01/27 10:26:43;;;;;;;35.38;16.70;;;;;;;4.09;79.07;100860.22;1644264;86;28074;-51
2023/01/27 10:29:18;;;;;;;34.13;16.77;;;;;;;4.13;78.37;100861.86;1614420;88;25630;-55
2023/01/27 10:31:58;;;;;;;34.98;17.12;;;;;;;4.14;77.79;100868.02;1644014;87;25705;-55
2023/01/27 10:34:38;;;;;;;38.38;17.62;;;;;;;4.03;77.09;100863.89;1642667;87;25641;-55
2023/01/27 10:37:13;;;;;;;34.88;16.93;;;;;;;3.94;76.95;100862.73;1644281;87;25463;-50
2023/01/27 10:40:05;;;;;;;36.53;17.40;;;;;;;3.87;76.78;100874.16;1644014;86;28011;-51
2023/01/27 10:42:52;;;;;;;34.53;17.07;;;;;;;3.76;76.23;100873.21;1614847;88;25629;-54
2023/01/27 10:45:27;;;;;;;30.72;14.83;;;;;;;3.61;75.86;100878.38;1644450;87;25546;-50
2023/01/27 10:48:20;;;;;;;34.88;15.80;;;;;;;3.50;76.00;100875.56;1658490;86;25758;-53
2023/01/27 10:51:21;;;;;;;35.40;19.10;;;;;;;3.38;75.55;100880.76;1717141;83;25609;-50
2023/01/27 10:53:59;;;;;;;34.75;21.62;;;;;;;3.28;75.63;100884.09;1687413;85;27450;-52
2023/01/27 10:56:59;;;;;;;33.80;24.27;;;;;;;3.16;75.75;100886.85;1717043;83;25561;-53
2023/01/27 10:59:48;;;;;;;33.18;23.15;;;;;;;3.08;75.64;100888.59;1716701;83;31207;-53
2023/01/27 11:02:32;;;;;;;55.23;49.98;;;;;;;3.01;75.78;100890.63;1716963;82;27863;-52
2023/01/27 11:05:09;;;;;;;31.60;21.23;;;;;;;2.92;75.45;100888.90;1717238;83;25536;-52
2023/01/27 11:07:41;;;;;;;30.00;18.65;;;;;;;2.85;75.34;100886.92;1716042;83;29659;-52
2023/01/27 11:10:18;;;;;;;40.55;33.67;;;;;;;2.78;75.38;100888.41;1716144;83;25612;-50
2023/01/27 11:12:52;;;;;;;28.83;20.62;;;;;;;2.71;75.27;100885.09;1687374;85;25607;-53
2023/01/27 11:15:32;;;;;;;30.77;18.07;;;;;;;2.64;75.63;100876.41;1717049;83;25628;-51
2023/01/27 11:18:12;;;;;;;37.03;26.27;;;;;;;2.60;75.72;100882.22;1702285;83;25644;-50
2023/01/27 11:20:44;;;;;;;30.27;15.98;;;;;;;2.57;75.80;100876.55;1717131;83;27379;-53
2023/01/27 11:23:22;;;;;;;31.20;13.83;;;;;;;2.53;75.83;100867.42;1717049;83;25684;-53
2023/01/27 11:26:11;;;;;;;27.90;14.18;;;;;;;2.46;75.84;100869.44;1687017;84;25441;-54
2023/01/27 11:29:21;;;;;;;29.12;15.00;;;;;;;2.43;75.88;100869.38;1717253;83;25803;-52
2023/01/27 11:32:13;;;;;;;29.40;14.15;;;;;;;2.37;76.14;100864.48;1669679;85;25593;-51
2023/01/27 11:35:06;;;;;;;29.52;14.38;;;;;;;2.32;76.08;100868.40;1669656;85;27363;-51
2023/01/27 11:37:47;;;;;;;33.65;15.03;;;;;;;2.32;76.51;100861.72;1669334;85;27200;-49
2023/01/27 11:40:32;;;;;;;41.25;15.32;;;;;;;2.34;76.62;100859.62;1669766;85;25638;-50
2023/01/27 11:43:01;;;;;;;37.10;16.52;;;;;;;2.37;76.76;100863.15;1669356;85;25697;-52
2023/01/27 11:45:33;;;;;;;38.08;17.35;;;;;;;2.36;76.59;100860.71;1669839;85;25529;-53
2023/01/27 11:48:02;;;;;;;37.95;16.50;;;;;;;2.36;76.63;100864.19;1646874;85;27452;-51
2023/01/27 11:50:32;;;;;;;;;;;;;;;2.36;76.33;100851.37;1641580;87;25694;-52
2023/01/27 11:53:04;;;;;;;;;;;;;;;2.30;76.32;100856.32;1641963;87;25545;-52
2023/01/27 11:55:39;;;;;;;29.63;13.30;;;;;;;2.27;76.32;100856.29;1617457;87;25689;-50
2023/01/27 11:58:13;;;;;;;33.10;13.95;;;;;;;2.23;76.48;100850.63;1630891;87;25602;-49
2023/01/27 12:00:47;;;;;;;29.05;14.30;;;;;;;2.22;76.54;100851.66;1621050;88;27366;-50
2023/01/27 12:03:24;;;;;;;35.90;16.32;;;;;;;2.23;76.55;100856.47;1638241;87;25449;-49
2023/01/27 12:06:02;;;;;;;33.83;16.23;;;;;;;2.23;76.58;100863.14;1641651;87;25515;-54
2023/01/27 12:08:42;;;;;;;35.20;16.25;;;;;;;2.21;76.50;100861.24;1649009;87;25817;-51
2023/01/27 12:11:25;;;;;;;37.78;15.58;;;;;;;2.22;76.63;100852.20;1641584;87;25556;-50
2023/01/27 12:14:02;;;;;;;36.42;16.77;;;;;;;2.23;76.65;100856.47;1649126;87;27368;-49
2023/01/27 12:16:50;;;;;;;33.40;16.75;;;;;;;2.24;76.75;100850.09;1614711;88;25786;-49
2023/01/27 12:19:33;;;;;;;36.70;17.80;;;;;;;2.21;76.63;100846.05;1641543;87;25709;-50